Terminal Aerodrome Forecast
Issued by NWS Wilmington, OH

Current Version | Previous Version | Graphics & Text | Print | Product List | Glossary On
Versions: 1 2 3 4 5 6 7 8 9 10 11 12 13 14 15 16 17 18 19 20 21 22
000
FTUS41 KILN 281131
TAFCMH
TAF
KCMH 281131Z 2812/2912 15006KT P6SM BKN009 OVC023
      TEMPO 2812/2814 OVC008
     FM281400 18005KT P6SM BKN035
     FM282200 22012KT P6SM VCTS BKN040CB
     FM290300 24008KT P6SM BKN100
     FM290800 27007KT P6SM SKC=

USA.gov is the U.S. government's official web portal to all federal, state and local government web resources and services.